Time;durP1;ratioP1;P1;durP2;ratioP2;P2;SDS_P1;SDS_P2;PMS_P1;PMS_P2;Temp;Humidity;BMP_temperature;BMP_pressure;BME280_temperature;BME280_humidity;BME280_pressure;Samples;Min_cycle;Max_cycle;Signal;HPM_P1;HPM_P2
2022/02/22 00:01:40;;;;;;;16.57;13.43;;;;;;;;;;5054756;28;20259;-78
2022/02/22 00:04:07;;;;;;;19.30;13.63;;;;;;;;;;5054099;28;20264;-79
2022/02/22 00:06:36;;;;;;;15.17;12.87;;;;;;;;;;5054544;28;20232;-79
2022/02/22 00:09:03;;;;;;;15.87;13.00;;;;;;;;;;5054101;28;20233;-80
2022/02/22 00:11:31;;;;;;;15.37;13.77;;;;;;;;;;5054425;28;20198;-79
2022/02/22 00:13:58;;;;;;;15.07;13.33;;;;;;;;;;5054312;28;20194;-79
2022/02/22 00:16:25;;;;;;;15.10;13.50;;;;;;;;;;5054477;28;20205;-80
2022/02/22 00:18:52;;;;;;;17.80;14.67;;;;;;;;;;5053818;28;20201;-79
2022/02/22 00:21:19;;;;;;;17.33;15.37;;;;;;;;;;5054123;28;20297;-79
2022/02/22 00:23:48;;;;;;;22.40;15.00;;;;;;;;;;5053763;28;20680;-78
2022/02/22 00:26:15;;;;;;;18.83;15.37;;;;;;;;;;5054188;28;20229;-78
2022/02/22 00:28:42;;;;;;;18.83;13.17;;;;;;;;;;5053772;28;20208;-78
2022/02/22 00:31:10;;;;;;;15.53;13.93;;;;;;;;;;5053819;28;20209;-80
2022/02/22 00:33:37;;;;;;;17.80;15.90;;;;;;;;;;5053638;28;20609;-78
2022/02/22 00:36:05;;;;;;;21.70;15.27;;;;;;;;;;5053759;28;20251;-79
2022/02/22 00:38:32;;;;;;;20.47;16.50;;;;;;;;;;5053475;28;20292;-79
2022/02/22 00:41:02;;;;;;;20.07;16.93;;;;;;;;;;5053637;28;20248;-79
2022/02/22 00:43:30;;;;;;;20.33;16.50;;;;;;;;;;5053193;28;20714;-78
2022/02/22 00:45:57;;;;;;;20.13;16.97;;;;;;;;;;5053470;28;20708;-81
2022/02/22 00:48:24;;;;;;;19.60;17.37;;;;;;;;;;5054293;28;20280;-78
2022/02/22 00:50:51;;;;;;;18.47;16.53;;;;;;;;;;5053177;28;20208;-78
2022/02/22 00:53:19;;;;;;;22.60;18.00;;;;;;;;;;5053640;28;20225;-78
2022/02/22 00:55:46;;;;;;;20.47;17.63;;;;;;;;;;5053808;28;20205;-80
2022/02/22 00:58:15;;;;;;;21.00;16.93;;;;;;;;;;5053177;28;20202;-79
2022/02/22 01:00:42;;;;;;;21.23;17.23;;;;;;;;;;5053414;28;20232;-78
2022/02/22 01:03:09;;;;;;;21.23;17.40;;;;;;;;;;5053119;28;20351;-78
2022/02/22 01:05:37;;;;;;;19.40;17.37;;;;;;;;;;5053655;28;20202;-78
2022/02/22 01:08:04;;;;;;;21.47;18.63;;;;;;;;;;5052815;28;20688;-78
2022/02/22 01:10:32;;;;;;;33.13;23.47;;;;;;;;;;5053381;28;20577;-79
2022/02/22 01:12:59;;;;;;;23.77;20.33;;;;;;;;;;5053278;28;20552;-78
2022/02/22 01:15:28;;;;;;;19.97;17.10;;;;;;;;;;5052601;28;20198;-78
2022/02/22 01:17:55;;;;;;;24.13;18.13;;;;;;;;;;5053143;28;20237;-78
2022/02/22 01:20:22;;;;;;;25.80;17.37;;;;;;;;;;5053150;28;20588;-78
2022/02/22 01:22:52;;;;;;;20.13;17.30;;;;;;;;;;5053068;28;20574;-78
2022/02/22 01:25:20;;;;;;;21.23;18.93;;;;;;;;;;5052887;28;20202;-78
2022/02/22 01:27:47;;;;;;;21.10;17.77;;;;;;;;;;5052768;28;20247;-78
2022/02/22 01:30:14;;;;;;;20.07;17.83;;;;;;;;;;5053039;28;20204;-78
2022/02/22 01:32:43;;;;;;;29.23;19.97;;;;;;;;;;5053195;28;20226;-79
2022/02/22 01:35:11;;;;;;;20.63;16.70;;;;;;;;;;5052857;28;20197;-79
2022/02/22 01:37:38;;;;;;;20.00;17.07;;;;;;;;;;5052401;28;20205;-80
2022/02/22 01:40:07;;;;;;;21.70;17.90;;;;;;;;;;5050720;28;20284;-78
2022/02/22 01:42:34;;;;;;;23.20;19.13;;;;;;;;;;5051881;28;20233;-78
2022/02/22 01:45:01;;;;;;;22.77;19.33;;;;;;;;;;5052011;28;20233;-79
2022/02/22 01:47:29;;;;;;;19.87;16.87;;;;;;;;;;5052284;28;20697;-80
2022/02/22 01:49:57;;;;;;;23.20;19.27;;;;;;;;;;5051991;28;20220;-82
2022/02/22 01:52:26;;;;;;;22.07;16.73;;;;;;;;;;5052321;28;20204;-79
2022/02/22 01:54:54;;;;;;;23.10;17.80;;;;;;;;;;5052695;28;20200;-79
2022/02/22 01:57:21;;;;;;;21.70;17.20;;;;;;;;;;5052010;28;20292;-79
2022/02/22 01:59:48;;;;;;;20.30;17.13;;;;;;;;;;5052458;28;20209;-78
2022/02/22 02:02:16;;;;;;;20.17;16.73;;;;;;;;;;5051932;28;20202;-79
2022/02/22 02:04:43;;;;;;;21.40;16.50;;;;;;;;;;5051843;28;20221;-79
2022/02/22 02:07:12;;;;;;;21.13;17.20;;;;;;;;;;5052207;28;20198;-79
2022/02/22 02:09:39;;;;;;;19.90;17.90;;;;;;;;;;5052078;28;20194;-79
2022/02/22 02:12:07;;;;;;;21.37;17.93;;;;;;;;;;5052021;28;20194;-79
2022/02/22 02:14:34;;;;;;;21.13;17.13;;;;;;;;;;5051724;28;20204;-78
2022/02/22 02:17:01;;;;;;;18.33;16.17;;;;;;;;;;5051661;28;20232;-79
2022/02/22 02:19:29;;;;;;;20.07;17.63;;;;;;;;;;5051721;28;20201;-78
2022/02/22 02:22:01;;;;;;;19.70;17.70;;;;;;;;;;5051949;28;20212;-80
2022/02/22 02:24:29;;;;;;;24.70;17.87;;;;;;;;;;5051547;28;20590;-79
2022/02/22 02:26:57;;;;;;;22.40;17.77;;;;;;;;;;5051679;28;20584;-78
2022/02/22 02:29:25;;;;;;;21.57;18.33;;;;;;;;;;5052085;28;20670;-78
2022/02/22 02:31:53;;;;;;;20.53;17.03;;;;;;;;;;5051828;28;20293;-79
2022/02/22 02:34:23;;;;;;;22.13;17.47;;;;;;;;;;5051664;28;20190;-79
2022/02/22 02:36:50;;;;;;;20.57;18.13;;;;;;;;;;5051833;28;20225;-78
2022/02/22 02:39:19;;;;;;;20.17;18.00;;;;;;;;;;5051772;28;20289;-78
2022/02/22 02:41:47;;;;;;;20.50;17.53;;;;;;;;;;5051713;28;20285;-79
2022/02/22 02:44:17;;;;;;;19.00;16.67;;;;;;;;;;5051201;28;21023;-78
2022/02/22 02:46:45;;;;;;;23.17;17.23;;;;;;;;;;5052290;28;20194;-78
2022/02/22 02:49:13;;;;;;;20.63;18.47;;;;;;;;;;5051707;28;20237;-78
2022/02/22 02:51:42;;;;;;;19.77;16.97;;;;;;;;;;5051934;28;20193;-78
2022/02/22 02:54:10;;;;;;;22.63;17.33;;;;;;;;;;5051625;28;20248;-78
2022/02/22 02:56:39;;;;;;;20.40;17.07;;;;;;;;;;5052220;28;20232;-79
2022/02/22 02:59:07;;;;;;;19.17;17.17;;;;;;;;;;5051957;28;20198;-78
2022/02/22 03:01:36;;;;;;;23.57;18.73;;;;;;;;;;5051870;28;20202;-79
2022/02/22 03:04:04;;;;;;;21.27;17.30;;;;;;;;;;5051423;28;20260;-78
2022/02/22 03:06:31;;;;;;;20.77;17.47;;;;;;;;;;5051719;28;20233;-78
2022/02/22 03:08:59;;;;;;;23.40;17.47;;;;;;;;;;5051742;28;20202;-78
2022/02/22 03:11:26;;;;;;;19.27;17.23;;;;;;;;;;5051727;28;20204;-78
2022/02/22 03:13:55;;;;;;;22.07;19.30;;;;;;;;;;5051954;28;20205;-78
2022/02/22 03:16:22;;;;;;;20.60;17.73;;;;;;;;;;5055623;28;20288;-78
2022/02/22 03:18:50;;;;;;;20.03;17.53;;;;;;;;;;5055556;28;20285;-78
2022/02/22 03:21:17;;;;;;;26.13;19.50;;;;;;;;;;5055119;28;20237;-78
2022/02/22 03:23:44;;;;;;;27.90;21.10;;;;;;;;;;5055422;28;20652;-78
2022/02/22 03:26:12;;;;;;;25.83;18.90;;;;;;;;;;5055453;28;20331;-78
2022/02/22 03:28:39;;;;;;;22.50;18.93;;;;;;;;;;5055071;28;20312;-78
2022/02/22 03:31:08;;;;;;;22.30;20.00;;;;;;;;;;5055350;28;20252;-78
2022/02/22 03:33:35;;;;;;;28.37;20.33;;;;;;;;;;5054743;28;20240;-78
2022/02/22 03:36:03;;;;;;;25.70;21.20;;;;;;;;;;5055570;28;20202;-78
2022/02/22 03:38:30;;;;;;;24.13;21.50;;;;;;;;;;5054787;28;20197;-78
2022/02/22 03:40:58;;;;;;;29.27;21.67;;;;;;;;;;5055029;28;20229;-78
2022/02/22 03:43:25;;;;;;;25.50;21.20;;;;;;;;;;5054290;28;20333;-78
2022/02/22 03:45:52;;;;;;;26.97;22.50;;;;;;;;;;5055154;28;20256;-78
2022/02/22 03:48:22;;;;;;;29.73;24.07;;;;;;;;;;5054725;28;20197;-78
2022/02/22 03:50:49;;;;;;;31.47;22.73;;;;;;;;;;5054832;28;20742;-78
2022/02/22 03:53:17;;;;;;;30.47;23.00;;;;;;;;;;5054832;28;20202;-78
2022/02/22 03:55:44;;;;;;;28.83;21.17;;;;;;;;;;5054440;28;20288;-78
2022/02/22 03:58:12;;;;;;;27.60;22.40;;;;;;;;;;5054674;28;20197;-78
2022/02/22 04:00:39;;;;;;;25.10;20.57;;;;;;;;;;5054783;28;20205;-78
2022/02/22 04:03:08;;;;;;;27.07;21.43;;;;;;;;;;5054618;28;20202;-78
2022/02/22 04:05:37;;;;;;;26.03;21.00;;;;;;;;;;5054390;28;20322;-78
2022/02/22 04:08:05;;;;;;;35.87;30.00;;;;;;;;;;5054427;28;20630;-79
2022/02/22 04:10:33;;;;;;;44.67;32.43;;;;;;;;;;5054414;28;20284;-78
2022/02/22 04:13:00;;;;;;;28.27;24.13;;;;;;;;;;5054263;28;20198;-78
2022/02/22 04:15:27;;;;;;;28.53;21.67;;;;;;;;;;5054603;28;20201;-78
2022/02/22 04:17:55;;;;;;;28.87;22.53;;;;;;;;;;5054169;28;20597;-78
2022/02/22 04:20:22;;;;;;;27.87;21.83;;;;;;;;;;5053810;28;20198;-78
2022/02/22 04:22:51;;;;;;;26.43;22.03;;;;;;;;;;5054548;28;20669;-78
2022/02/22 04:25:18;;;;;;;24.30;20.80;;;;;;;;;;5051056;28;20305;-79
2022/02/22 04:27:45;;;;;;;23.90;20.07;;;;;;;;;;5053861;28;20201;-79
2022/02/22 04:30:13;;;;;;;23.83;20.07;;;;;;;;;;5053489;28;20289;-80
2022/02/22 04:32:40;;;;;;;24.60;19.80;;;;;;;;;;5053853;28;20285;-78
2022/02/22 04:35:08;;;;;;;22.70;20.03;;;;;;;;;;5051951;28;20194;-78
2022/02/22 04:37:36;;;;;;;27.03;20.77;;;;;;;;;;5053097;28;20198;-79
2022/02/22 04:40:06;;;;;;;21.60;19.27;;;;;;;;;;5052720;28;20194;-79
2022/02/22 04:42:33;;;;;;;23.60;19.87;;;;;;;;;;5052730;28;20198;-78
2022/02/22 04:45:00;;;;;;;21.23;18.40;;;;;;;;;;5052561;28;20229;-78
2022/02/22 04:47:28;;;;;;;26.43;21.63;;;;;;;;;;5052340;28;20292;-79
2022/02/22 04:49:55;;;;;;;27.83;23.20;;;;;;;;;;5052594;28;20628;-80
2022/02/22 04:52:22;;;;;;;24.20;21.20;;;;;;;;;;5052527;28;20604;-79
2022/02/22 04:54:49;;;;;;;22.73;18.47;;;;;;;;;;5052771;28;20233;-79
2022/02/22 04:57:18;;;;;;;21.27;18.00;;;;;;;;;;5052588;28;20229;-79
2022/02/22 04:59:45;;;;;;;23.67;18.53;;;;;;;;;;5052034;28;20831;-79
2022/02/22 05:02:12;;;;;;;24.00;18.73;;;;;;;;;;5052714;28;20190;-79
2022/02/22 05:04:40;;;;;;;25.57;20.47;;;;;;;;;;5052109;28;20230;-79
2022/02/22 05:07:07;;;;;;;26.23;21.30;;;;;;;;;;5052305;28;20194;-78
2022/02/22 05:09:34;;;;;;;29.73;24.43;;;;;;;;;;5052052;28;20190;-79
2022/02/22 05:12:02;;;;;;;31.50;27.07;;;;;;;;;;5052011;28;20296;-79
2022/02/22 05:14:30;;;;;;;28.73;24.57;;;;;;;;;;5051916;28;20633;-79
2022/02/22 05:16:57;;;;;;;32.77;25.03;;;;;;;;;;5052134;28;20194;-78
2022/02/22 05:19:25;;;;;;;30.33;23.10;;;;;;;;;;5049896;28;20212;-80
2022/02/22 05:21:52;;;;;;;32.23;23.07;;;;;;;;;;5052017;28;20241;-79
2022/02/22 05:24:19;;;;;;;27.27;22.57;;;;;;;;;;5051205;28;20263;-79
2022/02/22 05:26:46;;;;;;;30.93;24.83;;;;;;;;;;5051655;28;20201;-79
2022/02/22 05:29:14;;;;;;;34.10;27.37;;;;;;;;;;5051564;28;20208;-79
2022/02/22 05:31:43;;;;;;;30.60;24.37;;;;;;;;;;5052111;28;20687;-79
2022/02/22 05:34:10;;;;;;;21.20;18.50;;;;;;;;;;5051435;28;20193;-79
2022/02/22 05:36:37;;;;;;;22.83;18.97;;;;;;;;;;5050864;28;20194;-79
2022/02/22 05:39:05;;;;;;;27.57;22.07;;;;;;;;;;5052225;28;20198;-79
2022/02/22 05:41:32;;;;;;;47.03;36.10;;;;;;;;;;5052617;28;20193;-80
2022/02/22 05:44:00;;;;;;;55.30;39.13;;;;;;;;;;5052394;28;20249;-79
2022/02/22 05:46:27;;;;;;;45.47;30.23;;;;;;;;;;5052586;28;20304;-79
2022/02/22 05:48:55;;;;;;;35.13;24.17;;;;;;;;;;5052301;28;20598;-79
2022/02/22 05:51:23;;;;;;;31.83;21.10;;;;;;;;;;5052750;28;20193;-79
2022/02/22 05:53:51;;;;;;;33.73;20.77;;;;;;;;;;5052161;28;20196;-79
2022/02/22 05:56:19;;;;;;;50.40;24.60;;;;;;;;;;5052369;28;20198;-79
2022/02/22 05:58:46;;;;;;;32.00;23.97;;;;;;;;;;5052386;28;20594;-77
2022/02/22 06:01:13;;;;;;;37.47;28.40;;;;;;;;;;5052154;28;20209;-79
2022/02/22 06:03:40;;;;;;;36.43;25.77;;;;;;;;;;5052104;28;20208;-79
2022/02/22 06:06:09;;;;;;;29.87;24.23;;;;;;;;;;5052203;28;20749;-79
2022/02/22 06:08:36;;;;;;;31.83;23.70;;;;;;;;;;5052189;28;20219;-79
2022/02/22 06:11:04;;;;;;;28.80;23.57;;;;;;;;;;5046070;28;20313;-79
2022/02/22 06:13:31;;;;;;;30.90;23.80;;;;;;;;;;5052538;28;20668;-79
2022/02/22 06:15:58;;;;;;;25.80;21.73;;;;;;;;;;5052237;28;20666;-79
2022/02/22 06:18:25;;;;;;;34.70;25.97;;;;;;;;;;5051991;28;20572;-79
2022/02/22 06:20:53;;;;;;;53.23;40.37;;;;;;;;;;5052010;28;20311;-78
2022/02/22 06:23:21;;;;;;;46.83;31.00;;;;;;;;;;5051989;28;20198;-79
2022/02/22 06:25:48;;;;;;;41.23;29.43;;;;;;;;;;5051767;28;20228;-79
2022/02/22 06:28:16;;;;;;;45.93;33.17;;;;;;;;;;5052082;28;20232;-79
2022/02/22 06:30:43;;;;;;;39.80;28.73;;;;;;;;;;5051675;28;20197;-79
2022/02/22 06:33:10;;;;;;;32.10;23.77;;;;;;;;;;5051861;28;20204;-79
2022/02/22 06:35:37;;;;;;;32.70;24.87;;;;;;;;;;5051609;28;20198;-79
2022/02/22 06:38:04;;;;;;;38.50;24.33;;;;;;;;;;5052167;28;20287;-79
2022/02/22 06:40:36;;;;;;;36.43;25.83;;;;;;;;;;5051628;28;20200;-79
2022/02/22 06:43:03;;;;;;;36.57;25.60;;;;;;;;;;5052054;28;20216;-79
2022/02/22 06:45:31;;;;;;;36.27;24.30;;;;;;;;;;5051225;28;20271;-79
2022/02/22 06:47:58;;;;;;;38.27;24.10;;;;;;;;;;5052830;28;20197;-79
2022/02/22 06:50:25;;;;;;;36.67;26.13;;;;;;;;;;5055675;28;20216;-79
2022/02/22 06:52:52;;;;;;;29.70;24.07;;;;;;;;;;5055769;28;20202;-79
2022/02/22 06:55:20;;;;;;;33.50;25.93;;;;;;;;;;5055386;28;20202;-79
2022/02/22 06:57:55;;;;;;;41.83;30.57;;;;;;;;;;5055648;28;20194;-79
2022/02/22 07:00:22;;;;;;;37.73;28.20;;;;;;;;;;5055482;28;20201;-79
2022/02/22 07:02:50;;;;;;;30.80;23.77;;;;;;;;;;5055607;28;20193;-79
2022/02/22 07:05:19;;;;;;;30.80;21.60;;;;;;;;;;5055435;28;20226;-79
2022/02/22 07:07:47;;;;;;;37.90;30.30;;;;;;;;;;5055588;28;20237;-79
2022/02/22 07:10:14;;;;;;;37.70;31.83;;;;;;;;;;5055311;28;20206;-79
2022/02/22 07:12:43;;;;;;;36.70;32.13;;;;;;;;;;5055457;28;20194;-79
2022/02/22 07:15:12;;;;;;;32.43;28.30;;;;;;;;;;5054978;28;20198;-79
2022/02/22 07:17:46;;;;;;;33.97;30.37;;;;;;;;;;5055355;28;20692;-79
2022/02/22 07:20:14;;;;;;;29.53;23.83;;;;;;;;;;5055339;28;20201;-79
2022/02/22 07:22:41;;;;;;;32.47;24.27;;;;;;;;;;5055268;28;20255;-79
2022/02/22 07:25:09;;;;;;;37.33;26.07;;;;;;;;;;5054712;28;20221;-79
2022/02/22 07:27:36;;;;;;;27.83;23.80;;;;;;;;;;5055406;28;20736;-79
2022/02/22 07:30:04;;;;;;;30.33;27.03;;;;;;;;;;5055400;28;20202;-80
2022/02/22 07:32:32;;;;;;;32.53;26.13;;;;;;;;;;5055019;28;20194;-79
2022/02/22 07:35:00;;;;;;;31.63;24.70;;;;;;;;;;5054929;28;20202;-80
2022/02/22 07:37:27;;;;;;;30.90;23.07;;;;;;;;;;5053926;28;20212;-81
2022/02/22 07:39:55;;;;;;;31.70;22.67;;;;;;;;;;5052746;28;20692;-79
2022/02/22 07:42:22;;;;;;;30.97;23.00;;;;;;;;;;5054819;28;20633;-80
2022/02/22 07:44:49;;;;;;;29.13;23.70;;;;;;;;;;5054576;28;20238;-81
2022/02/22 07:47:16;;;;;;;33.07;26.83;;;;;;;;;;5054891;28;20221;-79
2022/02/22 07:49:45;;;;;;;26.43;23.13;;;;;;;;;;5054458;28;20649;-79
2022/02/22 07:52:13;;;;;;;27.17;21.70;;;;;;;;;;5054557;28;20205;-79
2022/02/22 07:54:40;;;;;;;21.70;19.03;;;;;;;;;;5054511;28;20198;-80
2022/02/22 07:57:07;;;;;;;23.30;20.07;;;;;;;;;;5054516;28;20198;-79
2022/02/22 07:59:34;;;;;;;23.37;19.63;;;;;;;;;;5053853;28;20216;-79
2022/02/22 08:02:02;;;;;;;27.27;20.57;;;;;;;;;;5054461;28;20680;-79
2022/02/22 08:04:29;;;;;;;23.37;19.30;;;;;;;;;;5054144;28;20662;-79
2022/02/22 08:06:58;;;;;;;23.73;20.87;;;;;;;;;;5054694;28;20226;-79
2022/02/22 08:09:26;;;;;;;24.60;19.23;;;;;;;;;;5054084;28;20194;-79
2022/02/22 08:11:53;;;;;;;24.33;19.73;;;;;;;;;;5054563;28;20197;-79
2022/02/22 08:14:20;;;;;;;24.30;19.17;;;;;;;;;;5053880;28;20194;-80
2022/02/22 08:16:48;;;;;;;21.37;17.53;;;;;;;;;;5054243;28;20252;-79
2022/02/22 08:19:15;;;;;;;20.83;18.27;;;;;;;;;;5054080;28;20194;-80
2022/02/22 08:21:42;;;;;;;21.03;17.00;;;;;;;;;;5054119;28;20662;-80
2022/02/22 08:24:11;;;;;;;23.13;16.37;;;;;;;;;;5053821;28;20194;-80
2022/02/22 08:26:39;;;;;;;22.20;15.27;;;;;;;;;;5054553;28;20257;-80
2022/02/22 08:29:07;;;;;;;16.43;14.80;;;;;;;;;;5053787;28;20205;-80
2022/02/22 08:31:34;;;;;;;18.93;14.33;;;;;;;;;;5054269;28;20202;-80
2022/02/22 08:34:02;;;;;;;18.40;15.20;;;;;;;;;;5053482;28;20209;-80
2022/02/22 09:30:49;;;;;;;11.90;9.93;;;;;;;;;;5065799;28;20553;-80
2022/02/22 09:33:16;;;;;;;6.03;5.50;;;;;;;;;;5065602;28;20296;-80
2022/02/22 09:35:44;;;;;;;10.03;7.10;;;;;;;;;;5065507;28;20205;-80
2022/02/22 09:38:11;;;;;;;9.80;6.87;;;;;;;;;;5058072;28;20731;-80
2022/02/22 09:40:38;;;;;;;7.83;6.80;;;;;;;;;;5059172;28;20661;-80
2022/02/22 09:43:05;;;;;;;8.37;6.93;;;;;;;;;;5048250;28;20212;-80
2022/02/22 09:45:34;;;;;;;10.07;7.53;;;;;;;;;;5052069;28;20201;-80
2022/02/22 09:48:04;;;;;;;9.70;8.30;;;;;;;;;;5049057;28;20596;-80
2022/02/22 09:50:32;;;;;;;12.00;8.47;;;;;;;;;;5045405;28;20198;-80
2022/02/22 09:52:59;;;;;;;11.03;8.83;;;;;;;;;;5045245;28;20277;-80
2022/02/22 09:55:27;;;;;;;11.97;8.63;;;;;;;;;;5045318;28;20547;-80
2022/02/22 09:57:54;;;;;;;8.93;8.07;;;;;;;;;;5044977;28;20230;-80
2022/02/22 10:00:23;;;;;;;7.73;6.93;;;;;;;;;;5044845;28;20226;-80
2022/02/22 10:02:50;;;;;;;9.77;6.90;;;;;;;;;;5045369;28;20199;-80
2022/02/22 10:05:21;;;;;;;17.47;12.33;;;;;;;;;;5044606;28;20580;-80
2022/02/22 10:07:50;;;;;;;12.77;8.50;;;;;;;;;;5045098;28;20187;-80
2022/02/22 10:10:18;;;;;;;14.37;9.50;;;;;;;;;;5044721;28;20263;-80
2022/02/22 10:12:45;;;;;;;13.40;9.67;;;;;;;;;;5045232;28;20206;-80
2022/02/22 10:15:12;;;;;;;11.13;7.90;;;;;;;;;;5044551;28;20206;-80
2022/02/22 10:17:40;;;;;;;12.00;10.67;;;;;;;;;;5045093;28;20220;-80
2022/02/22 10:20:09;;;;;;;17.13;13.30;;;;;;;;;;5044648;28;20287;-80
2022/02/22 10:22:47;;;;;;;17.73;14.30;;;;;;;;;;5044817;28;20202;-80
2022/02/22 10:25:15;;;;;;;10.63;8.60;;;;;;;;;;5044674;28;20190;-81
2022/02/22 10:27:46;;;;;;;10.17;9.10;;;;;;;;;;5044548;28;20294;-80
2022/02/22 10:30:27;;;;;;;11.37;9.00;;;;;;;;;;5039585;28;20400;-80
2022/02/22 10:32:54;;;;;;;10.03;9.00;;;;;;;;;;5031746;28;20198;-80
2022/02/22 10:35:33;;;;;;;8.47;7.67;;;;;;;;;;5033557;28;20203;-80
2022/02/22 10:38:11;;;;;;;16.67;11.30;;;;;;;;;;5040300;28;20599;-80
2022/02/22 10:40:40;;;;;;;6.87;5.83;;;;;;;;;;5031147;28;20211;-80
2022/02/22 10:43:07;;;;;;;5.80;5.07;;;;;;;;;;5031239;28;20230;-80
2022/02/22 10:45:35;;;;;;;6.50;5.93;;;;;;;;;;5031167;28;20206;-80
2022/02/22 10:48:02;;;;;;;7.43;6.63;;;;;;;;;;5033613;28;20255;-80
2022/02/22 10:50:31;;;;;;;12.37;10.47;;;;;;;;;;5039702;28;20202;-80
2022/02/22 10:52:59;;;;;;;7.80;6.63;;;;;;;;;;5031180;28;20301;-80
2022/02/22 10:55:27;;;;;;;8.73;7.20;;;;;;;;;;5030843;28;20705;-80
2022/02/22 10:57:55;;;;;;;10.70;7.40;;;;;;;;;;5031081;28;20709;-80
2022/02/22 11:00:22;;;;;;;8.10;7.03;;;;;;;;;;5030742;28;20219;-80
2022/02/22 11:02:49;;;;;;;7.47;5.47;;;;;;;;;;5031047;28;20259;-80
2022/02/22 11:05:17;;;;;;;31.90;24.40;;;;;;;;;;5031099;28;20320;-80
2022/02/22 11:07:51;;;;;;;13.53;11.80;;;;;;;;;;5030981;28;20205;-80
2022/02/22 11:10:19;;;;;;;22.17;16.57;;;;;;;;;;5030727;28;20707;-79
2022/02/22 11:12:56;;;;;;;15.70;11.50;;;;;;;;;;5030921;28;20613;-80
2022/02/22 11:15:34;;;;;;;7.23;6.10;;;;;;;;;;5030643;28;20190;-79
2022/02/22 11:18:07;;;;;;;6.77;6.17;;;;;;;;;;5030755;28;20199;-79
2022/02/22 11:20:35;;;;;;;9.97;6.70;;;;;;;;;;5030228;28;20221;-80
2022/02/22 11:23:09;;;;;;;8.47;6.20;;;;;;;;;;5030710;28;20279;-79
2022/02/22 11:25:37;;;;;;;9.30;8.43;;;;;;;;;;5030415;28;20622;-79
2022/02/22 11:28:07;;;;;;;10.27;8.27;;;;;;;;;;5030657;28;20207;-79
2022/02/22 11:30:36;;;;;;;14.30;9.53;;;;;;;;;;5030258;28;20317;-79
2022/02/22 11:33:08;;;;;;;6.77;6.07;;;;;;;;;;5030261;28;20211;-79
2022/02/22 11:35:46;;;;;;;6.63;6.00;;;;;;;;;;5030572;28;20552;-79
2022/02/22 11:38:14;;;;;;;7.27;6.57;;;;;;;;;;5030409;28;20670;-79
2022/02/22 11:40:42;;;;;;;8.33;6.03;;;;;;;;;;5031399;28;20227;-79
2022/02/22 11:43:13;;;;;;;6.43;5.77;;;;;;;;;;5038883;28;20610;-79
2022/02/22 11:45:40;;;;;;;6.03;5.40;;;;;;;;;;5030399;28;20188;-79
2022/02/22 11:48:15;;;;;;;5.17;4.73;;;;;;;;;;5029934;28;20205;-79
2022/02/22 11:50:44;;;;;;;8.07;6.60;;;;;;;;;;5030283;28;20198;-80
2022/02/22 11:53:13;;;;;;;10.77;7.77;;;;;;;;;;5030139;28;20714;-80
2022/02/22 11:55:41;;;;;;;11.30;8.07;;;;;;;;;;5029909;28;20191;-81
2022/02/22 11:58:14;;;;;;;8.17;7.00;;;;;;;;;;5030125;28;20221;-81
2022/02/22 12:00:41;;;;;;;9.60;8.60;;;;;;;;;;5029864;28;20277;-81
2022/02/22 12:03:09;;;;;;;9.97;7.93;;;;;;;;;;5029983;28;20279;-80
2022/02/22 12:05:39;;;;;;;8.20;7.47;;;;;;;;;;5029853;28;20210;-81
2022/02/22 12:08:08;;;;;;;10.50;7.70;;;;;;;;;;5030249;28;20556;-80
2022/02/22 12:10:45;;;;;;;8.67;7.77;;;;;;;;;;5030089;28;20555;-80
2022/02/22 12:13:16;;;;;;;7.47;6.70;;;;;;;;;;5029793;28;20190;-81
2022/02/22 12:15:43;;;;;;;9.07;8.27;;;;;;;;;;5029575;28;20190;-80
2022/02/22 12:18:15;;;;;;;8.67;7.70;;;;;;;;;;5029683;28;20220;-81
2022/02/22 12:20:43;;;;;;;8.30;7.60;;;;;;;;;;5029858;28;20229;-80
2022/02/22 12:23:16;;;;;;;10.20;7.67;;;;;;;;;;5029446;28;20203;-80
2022/02/22 12:25:44;;;;;;;9.40;8.40;;;;;;;;;;5029535;28;20187;-80
2022/02/22 12:28:11;;;;;;;9.30;8.33;;;;;;;;;;5029608;28;20256;-80
2022/02/22 12:30:41;;;;;;;10.97;9.13;;;;;;;;;;5028914;28;20702;-80
2022/02/22 12:33:09;;;;;;;8.47;7.67;;;;;;;;;;5029543;28;20199;-80
2022/02/22 12:35:38;;;;;;;9.40;8.10;;;;;;;;;;5029652;28;20225;-80
2022/02/22 12:38:13;;;;;;;9.87;8.63;;;;;;;;;;5029562;28;20199;-80
2022/02/22 12:40:41;;;;;;;9.73;8.80;;;;;;;;;;5030600;28;20224;-80
2022/02/22 12:43:10;;;;;;;9.57;8.37;;;;;;;;;;5039913;28;20267;-80
2022/02/22 12:45:40;;;;;;;8.97;8.20;;;;;;;;;;5029198;28;20203;-80
2022/02/22 12:48:08;;;;;;;11.43;10.23;;;;;;;;;;5029608;28;20206;-80
2022/02/22 12:50:35;;;;;;;10.70;9.70;;;;;;;;;;5029262;28;20198;-79
2022/02/22 12:53:03;;;;;;;15.60;9.97;;;;;;;;;;5029302;28;20709;-80
2022/02/22 12:55:30;;;;;;;12.00;10.90;;;;;;;;;;5029026;28;20205;-79
2022/02/22 12:58:08;;;;;;;13.37;12.10;;;;;;;;;;5029227;28;20199;-80
2022/02/22 13:00:35;;;;;;;12.73;11.47;;;;;;;;;;5028775;28;20701;-80
2022/02/22 13:03:12;;;;;;;11.57;10.47;;;;;;;;;;5029465;28;20203;-79
2022/02/22 13:05:40;;;;;;;10.73;9.67;;;;;;;;;;5029151;28;20237;-80
2022/02/22 13:08:09;;;;;;;11.97;10.77;;;;;;;;;;5029193;28;20259;-80
2022/02/22 13:10:44;;;;;;;9.73;8.73;;;;;;;;;;5028881;28;20199;-80
2022/02/22 13:13:12;;;;;;;10.30;9.13;;;;;;;;;;5029094;28;20198;-80
2022/02/22 13:15:39;;;;;;;10.13;9.07;;;;;;;;;;5028567;28;20686;-80
2022/02/22 13:18:18;;;;;;;9.90;8.90;;;;;;;;;;5029269;28;20301;-80
2022/02/22 13:20:45;;;;;;;9.40;8.50;;;;;;;;;;5028996;28;20293;-80
2022/02/22 13:23:13;;;;;;;9.43;8.50;;;;;;;;;;5028803;28;20198;-80
2022/02/22 13:25:41;;;;;;;9.03;8.13;;;;;;;;;;5028375;28;20206;-79
2022/02/22 13:28:08;;;;;;;9.37;8.43;;;;;;;;;;5028839;28;20206;-80
2022/02/22 13:30:39;;;;;;;9.13;8.23;;;;;;;;;;5028478;28;20234;-80
2022/02/22 13:33:08;;;;;;;9.47;8.67;;;;;;;;;;5029121;28;20564;-80
2022/02/22 13:35:37;;;;;;;10.87;9.33;;;;;;;;;;5028594;28;20209;-80
2022/02/22 13:38:15;;;;;;;9.50;8.07;;;;;;;;;;5028701;28;20706;-80
2022/02/22 13:40:43;;;;;;;9.60;8.70;;;;;;;;;;5028254;28;20213;-80
2022/02/22 13:43:13;;;;;;;9.40;7.57;;;;;;;;;;5029675;28;20207;-80
2022/02/22 13:45:42;;;;;;;9.17;8.27;;;;;;;;;;5039576;28;20202;-79
2022/02/22 13:48:11;;;;;;;9.23;8.40;;;;;;;;;;5048734;28;20229;-79
2022/02/22 13:50:40;;;;;;;9.33;8.20;;;;;;;;;;5048165;28;20194;-79
2022/02/22 13:53:09;;;;;;;8.40;7.53;;;;;;;;;;5048130;28;20194;-80
2022/02/22 13:55:46;;;;;;;9.30;8.10;;;;;;;;;;5048117;28;20209;-80
2022/02/22 13:58:13;;;;;;;8.83;7.77;;;;;;;;;;5048840;28;20190;-79
2022/02/22 14:00:44;;;;;;;8.10;7.30;;;;;;;;;;5047888;28;20350;-79
2022/02/22 14:03:11;;;;;;;8.30;7.50;;;;;;;;;;5048236;28;20206;-80
2022/02/22 14:05:40;;;;;;;7.00;6.40;;;;;;;;;;5049066;28;20198;-79
2022/02/22 14:08:11;;;;;;;8.10;7.30;;;;;;;;;;5051746;28;20678;-79
2022/02/22 14:10:38;;;;;;;7.77;6.93;;;;;;;;;;5051627;28;20235;-80
2022/02/22 14:13:05;;;;;;;10.13;7.97;;;;;;;;;;5051685;28;20205;-80
2022/02/22 14:15:33;;;;;;;7.83;7.03;;;;;;;;;;5051372;28;20256;-80
2022/02/22 14:18:01;;;;;;;6.97;6.37;;;;;;;;;;5051655;28;20304;-77
2022/02/22 14:20:30;;;;;;;8.63;7.03;;;;;;;;;;5051273;28;20721;-78
2022/02/22 14:22:59;;;;;;;8.07;7.27;;;;;;;;;;5051264;28;20194;-78
2022/02/22 14:25:28;;;;;;;7.63;6.80;;;;;;;;;;5051272;28;20692;-78
2022/02/22 14:27:56;;;;;;;6.77;6.17;;;;;;;;;;5051309;28;20254;-78
2022/02/22 14:30:23;;;;;;;7.97;6.57;;;;;;;;;;5050683;28;20229;-78
2022/02/22 14:32:50;;;;;;;7.50;6.53;;;;;;;;;;5051713;28;20281;-78
2022/02/22 14:35:17;;;;;;;7.27;5.93;;;;;;;;;;5051523;27;20198;-77
2022/02/22 14:37:45;;;;;;;7.10;6.40;;;;;;;;;;5051236;28;20236;-77
2022/02/22 14:40:14;;;;;;;8.67;6.87;;;;;;;;;;5050940;28;20308;-78
2022/02/22 14:42:42;;;;;;;9.67;8.27;;;;;;;;;;5044736;28;20244;-77
2022/02/22 14:45:10;;;;;;;7.07;6.37;;;;;;;;;;5031480;28;20203;-78
2022/02/22 14:47:37;;;;;;;7.27;6.67;;;;;;;;;;5031178;28;20626;-78
2022/02/22 14:50:06;;;;;;;7.07;6.47;;;;;;;;;;5031468;28;20194;-80
2022/02/22 14:52:33;;;;;;;7.73;4.97;;;;;;;;;;5031239;28;20247;-79
2022/02/22 14:55:00;;;;;;;6.17;4.63;;;;;;;;;;5031185;28;20203;-79
2022/02/22 14:57:29;;;;;;;5.07;4.57;;;;;;;;;;5031331;28;20195;-79
2022/02/22 14:59:56;;;;;;;5.10;4.60;;;;;;;;;;5030944;28;20290;-80
2022/02/22 15:02:26;;;;;;;5.90;5.30;;;;;;;;;;5031299;28;20199;-80
2022/02/22 15:04:53;;;;;;;3.97;3.63;;;;;;;;;;5030712;28;20719;-79
2022/02/22 15:07:21;;;;;;;3.67;3.37;;;;;;;;;;5030687;28;20203;-80
2022/02/22 15:09:48;;;;;;;4.20;3.33;;;;;;;;;;5031116;28;20202;-80
2022/02/22 15:12:15;;;;;;;3.30;3.00;;;;;;;;;;5030738;28;20591;-81
2022/02/22 15:14:44;;;;;;;3.58;3.28;;;;;;;;;;5030469;28;20448;-80
2022/02/22 15:17:11;;;;;;;3.37;3.07;;;;;;;;;;5030424;28;20738;-80
2022/02/22 15:19:38;;;;;;;3.97;3.57;;;;;;;;;;5030983;28;20612;-80
2022/02/22 15:22:06;;;;;;;3.17;2.87;;;;;;;;;;5030949;28;20308;-80
2022/02/22 15:24:33;;;;;;;2.80;2.53;;;;;;;;;;5030587;28;20199;-79
2022/02/22 15:27:00;;;;;;;3.17;2.90;;;;;;;;;;5030327;28;20202;-79